sensor_id;sensor_type;location;lat;lon;timestamp;temperature;humidity
20416;DHT22;10367;52.202;5.996;2023-01-19T00:01:02;1.70;99.90
20416;DHT22;10367;52.202;5.996;2023-01-19T00:03:31;1.60;99.90
20416;DHT22;10367;52.202;5.996;2023-01-19T00:06:04;1.50;99.90
20416;DHT22;10367;52.202;5.996;2023-01-19T00:08:33;1.40;99.90
20416;DHT22;10367;52.202;5.996;2023-01-19T00:11:03;1.40;99.90
20416;DHT22;10367;52.202;5.996;2023-01-19T00:13:32;1.30;99.90
20416;DHT22;10367;52.202;5.996;2023-01-19T00:16:01;1.30;99.90
20416;DHT22;10367;52.202;5.996;2023-01-19T00:18:33;1.30;99.90
20416;DHT22;10367;52.202;5.996;2023-01-19T00:21:02;1.20;99.90
20416;DHT22;10367;52.202;5.996;2023-01-19T00:23:31;1.20;99.90
20416;DHT22;10367;52.202;5.996;2023-01-19T00:26:00;1.10;99.90
20416;DHT22;10367;52.202;5.996;2023-01-19T00:28:30;1.10;99.90
20416;DHT22;10367;52.202;5.996;2023-01-19T00:30:59;1.10;99.90
20416;DHT22;10367;52.202;5.996;2023-01-19T00:33:28;1.10;99.90
20416;DHT22;10367;52.202;5.996;2023-01-19T00:35:56;1.10;99.90
20416;DHT22;10367;52.202;5.996;2023-01-19T00:38:25;1.20;99.90
20416;DHT22;10367;52.202;5.996;2023-01-19T00:40:57;1.20;99.90
20416;DHT22;10367;52.202;5.996;2023-01-19T00:43:26;1.20;99.90
20416;DHT22;10367;52.202;5.996;2023-01-19T00:45:56;1.20;99.90
20416;DHT22;10367;52.202;5.996;2023-01-19T00:48:25;1.20;99.90
20416;DHT22;10367;52.202;5.996;2023-01-19T00:50:54;1.20;99.90
20416;DHT22;10367;52.202;5.996;2023-01-19T00:53:23;1.30;99.90
20416;DHT22;10367;52.202;5.996;2023-01-19T00:55:52;1.20;99.90
20416;DHT22;10367;52.202;5.996;2023-01-19T00:58:24;1.20;99.90
20416;DHT22;10367;52.202;5.996;2023-01-19T01:00:53;1.20;99.90
20416;DHT22;10367;52.202;5.996;2023-01-19T01:03:25;1.10;99.90
20416;DHT22;10367;52.202;5.996;2023-01-19T01:05:54;1.10;99.90
20416;DHT22;10367;52.202;5.996;2023-01-19T01:08:32;1.00;99.90
20416;DHT22;10367;52.202;5.996;2023-01-19T01:11:01;1.00;99.90
20416;DHT22;10367;52.202;5.996;2023-01-19T01:13:30;1.00;99.90
20416;DHT22;10367;52.202;5.996;2023-01-19T01:16:00;1.00;99.90
20416;DHT22;10367;52.202;5.996;2023-01-19T01:18:34;1.00;99.90
20416;DHT22;10367;52.202;5.996;2023-01-19T01:21:05;1.00;99.90
20416;DHT22;10367;52.202;5.996;2023-01-19T01:23:34;1.10;99.90
20416;DHT22;10367;52.202;5.996;2023-01-19T01:26:03;1.10;99.90
20416;DHT22;10367;52.202;5.996;2023-01-19T01:28:35;1.10;99.90
20416;DHT22;10367;52.202;5.996;2023-01-19T01:31:04;1.20;99.90
20416;DHT22;10367;52.202;5.996;2023-01-19T01:33:37;1.20;99.90
20416;DHT22;10367;52.202;5.996;2023-01-19T01:36:09;1.30;99.90
20416;DHT22;10367;52.202;5.996;2023-01-19T01:38:38;1.40;99.90
20416;DHT22;10367;52.202;5.996;2023-01-19T01:41:09;1.40;99.90
20416;DHT22;10367;52.202;5.996;2023-01-19T01:43:46;1.50;99.90
20416;DHT22;10367;52.202;5.996;2023-01-19T01:46:16;1.50;99.90
20416;DHT22;10367;52.202;5.996;2023-01-19T01:48:53;1.50;99.90
20416;DHT22;10367;52.202;5.996;2023-01-19T01:51:26;1.50;99.90
20416;DHT22;10367;52.202;5.996;2023-01-19T01:54:05;1.50;99.90
20416;DHT22;10367;52.202;5.996;2023-01-19T01:56:38;1.50;99.90
20416;DHT22;10367;52.202;5.996;2023-01-19T01:59:15;1.50;99.90
20416;DHT22;10367;52.202;5.996;2023-01-19T02:01:54;1.60;99.90
20416;DHT22;10367;52.202;5.996;2023-01-19T02:04:48;1.50;99.90
20416;DHT22;10367;52.202;5.996;2023-01-19T02:07:22;1.50;99.90
20416;DHT22;10367;52.202;5.996;2023-01-19T02:10:11;1.50;99.90
20416;DHT22;10367;52.202;5.996;2023-01-19T02:12:57;1.50;99.90
20416;DHT22;10367;52.202;5.996;2023-01-19T02:15:47;1.50;99.90
20416;DHT22;10367;52.202;5.996;2023-01-19T02:18:16;1.40;99.90
20416;DHT22;10367;52.202;5.996;2023-01-19T02:20:54;1.40;99.90
20416;DHT22;10367;52.202;5.996;2023-01-19T02:23:37;1.40;99.90
20416;DHT22;10367;52.202;5.996;2023-01-19T02:26:07;1.50;99.90
20416;DHT22;10367;52.202;5.996;2023-01-19T02:28:39;1.40;99.90
20416;DHT22;10367;52.202;5.996;2023-01-19T02:31:08;1.40;99.90
20416;DHT22;10367;52.202;5.996;2023-01-19T02:33:38;1.40;99.90
20416;DHT22;10367;52.202;5.996;2023-01-19T02:36:11;1.40;99.90
20416;DHT22;10367;52.202;5.996;2023-01-19T02:38:44;1.30;99.90
20416;DHT22;10367;52.202;5.996;2023-01-19T02:41:17;1.20;99.90
20416;DHT22;10367;52.202;5.996;2023-01-19T02:43:48;1.10;99.90
20416;DHT22;10367;52.202;5.996;2023-01-19T02:46:17;1.10;99.90
20416;DHT22;10367;52.202;5.996;2023-01-19T02:48:47;1.00;99.90
20416;DHT22;10367;52.202;5.996;2023-01-19T02:51:18;1.00;99.90
20416;DHT22;10367;52.202;5.996;2023-01-19T02:54:16;1.00;99.90
20416;DHT22;10367;52.202;5.996;2023-01-19T02:56:55;1.00;99.90
20416;DHT22;10367;52.202;5.996;2023-01-19T02:59:34;1.00;99.90
20416;DHT22;10367;52.202;5.996;2023-01-19T03:02:22;1.00;99.90
20416;DHT22;10367;52.202;5.996;2023-01-19T03:05:01;1.00;99.90
20416;DHT22;10367;52.202;5.996;2023-01-19T03:07:40;1.10;99.90
20416;DHT22;10367;52.202;5.996;2023-01-19T03:10:19;1.10;99.90
20416;DHT22;10367;52.202;5.996;2023-01-19T03:12:53;1.10;99.90
20416;DHT22;10367;52.202;5.996;2023-01-19T03:15:29;1.10;99.90
20416;DHT22;10367;52.202;5.996;2023-01-19T03:18:00;1.10;99.90
20416;DHT22;10367;52.202;5.996;2023-01-19T03:20:31;1.20;99.90
20416;DHT22;10367;52.202;5.996;2023-01-19T03:23:02;1.20;99.90
20416;DHT22;10367;52.202;5.996;2023-01-19T03:25:35;1.20;99.90
20416;DHT22;10367;52.202;5.996;2023-01-19T03:28:05;1.20;99.90
20416;DHT22;10367;52.202;5.996;2023-01-19T03:30:41;1.20;99.90
20416;DHT22;10367;52.202;5.996;2023-01-19T03:33:16;1.30;99.90
20416;DHT22;10367;52.202;5.996;2023-01-19T03:35:50;1.30;99.90
20416;DHT22;10367;52.202;5.996;2023-01-19T03:38:24;1.30;99.90
20416;DHT22;10367;52.202;5.996;2023-01-19T03:41:00;1.30;99.90
20416;DHT22;10367;52.202;5.996;2023-01-19T03:43:30;1.30;99.90
20416;DHT22;10367;52.202;5.996;2023-01-19T03:46:01;1.30;99.90
20416;DHT22;10367;52.202;5.996;2023-01-19T03:48:31;1.40;99.90
20416;DHT22;10367;52.202;5.996;2023-01-19T03:51:02;1.40;99.90
20416;DHT22;10367;52.202;5.996;2023-01-19T03:53:31;1.40;99.90
20416;DHT22;10367;52.202;5.996;2023-01-19T03:56:02;1.40;99.90
20416;DHT22;10367;52.202;5.996;2023-01-19T03:58:31;1.40;99.90
20416;DHT22;10367;52.202;5.996;2023-01-19T04:01:00;1.50;99.90
20416;DHT22;10367;52.202;5.996;2023-01-19T04:03:30;1.50;99.90
20416;DHT22;10367;52.202;5.996;2023-01-19T04:05:59;1.50;99.90
20416;DHT22;10367;52.202;5.996;2023-01-19T04:08:28;1.50;99.90
20416;DHT22;10367;52.202;5.996;2023-01-19T04:10:57;1.50;99.90
20416;DHT22;10367;52.202;5.996;2023-01-19T04:13:27;1.60;99.90
20416;DHT22;10367;52.202;5.996;2023-01-19T04:15:58;1.60;99.90
20416;DHT22;10367;52.202;5.996;2023-01-19T04:18:28;1.60;99.90
20416;DHT22;10367;52.202;5.996;2023-01-19T04:21:00;1.60;99.90
20416;DHT22;10367;52.202;5.996;2023-01-19T04:23:29;1.60;99.90
20416;DHT22;10367;52.202;5.996;2023-01-19T04:25:59;1.70;99.90
20416;DHT22;10367;52.202;5.996;2023-01-19T04:28:31;1.70;99.90
20416;DHT22;10367;52.202;5.996;2023-01-19T04:31:01;1.60;99.90
20416;DHT22;10367;52.202;5.996;2023-01-19T04:33:30;1.70;99.90
20416;DHT22;10367;52.202;5.996;2023-01-19T04:36:00;1.80;99.90
20416;DHT22;10367;52.202;5.996;2023-01-19T04:38:28;1.80;99.90
20416;DHT22;10367;52.202;5.996;2023-01-19T04:40:57;1.90;99.90
20416;DHT22;10367;52.202;5.996;2023-01-19T04:43:26;1.90;99.90
20416;DHT22;10367;52.202;5.996;2023-01-19T04:45:56;2.00;99.90
20416;DHT22;10367;52.202;5.996;2023-01-19T04:48:25;2.10;99.90
20416;DHT22;10367;52.202;5.996;2023-01-19T04:50:54;2.10;99.90
20416;DHT22;10367;52.202;5.996;2023-01-19T04:53:23;2.10;99.90
20416;DHT22;10367;52.202;5.996;2023-01-19T04:55:52;2.10;99.90
20416;DHT22;10367;52.202;5.996;2023-01-19T04:58:22;2.20;99.90
20416;DHT22;10367;52.202;5.996;2023-01-19T05:00:51;2.20;99.90
20416;DHT22;10367;52.202;5.996;2023-01-19T05:03:21;2.20;99.90
20416;DHT22;10367;52.202;5.996;2023-01-19T05:05:52;2.20;99.90
20416;DHT22;10367;52.202;5.996;2023-01-19T05:08:23;2.10;99.90
20416;DHT22;10367;52.202;5.996;2023-01-19T05:10:52;2.00;99.90
20416;DHT22;10367;52.202;5.996;2023-01-19T05:13:20;2.00;99.90
20416;DHT22;10367;52.202;5.996;2023-01-19T05:15:49;2.00;99.90
20416;DHT22;10367;52.202;5.996;2023-01-19T05:18:18;1.90;99.90
20416;DHT22;10367;52.202;5.996;2023-01-19T05:20:49;1.90;99.90
20416;DHT22;10367;52.202;5.996;2023-01-19T05:23:17;1.90;99.90
20416;DHT22;10367;52.202;5.996;2023-01-19T05:25:46;1.90;99.90
20416;DHT22;10367;52.202;5.996;2023-01-19T05:28:15;1.90;99.90
20416;DHT22;10367;52.202;5.996;2023-01-19T05:30:44;1.90;99.90
20416;DHT22;10367;52.202;5.996;2023-01-19T05:33:12;2.00;99.90
20416;DHT22;10367;52.202;5.996;2023-01-19T05:35:41;1.90;99.90
20416;DHT22;10367;52.202;5.996;2023-01-19T05:38:12;1.90;99.90
20416;DHT22;10367;52.202;5.996;2023-01-19T05:40:45;1.90;99.90
20416;DHT22;10367;52.202;5.996;2023-01-19T05:43:14;2.00;99.90
20416;DHT22;10367;52.202;5.996;2023-01-19T05:45:43;2.00;99.90
20416;DHT22;10367;52.202;5.996;2023-01-19T05:48:12;1.90;99.90
20416;DHT22;10367;52.202;5.996;2023-01-19T05:50:40;1.90;99.90
20416;DHT22;10367;52.202;5.996;2023-01-19T05:53:09;1.90;99.90
20416;DHT22;10367;52.202;5.996;2023-01-19T05:55:39;1.90;99.90
20416;DHT22;10367;52.202;5.996;2023-01-19T05:58:08;1.90;99.90
20416;DHT22;10367;52.202;5.996;2023-01-19T06:00:37;1.80;99.90
20416;DHT22;10367;52.202;5.996;2023-01-19T06:03:06;1.80;99.90
20416;DHT22;10367;52.202;5.996;2023-01-19T06:05:35;1.80;99.90
20416;DHT22;10367;52.202;5.996;2023-01-19T06:08:05;1.70;99.90
20416;DHT22;10367;52.202;5.996;2023-01-19T06:10:34;1.70;99.90
20416;DHT22;10367;52.202;5.996;2023-01-19T06:13:04;1.70;99.90
20416;DHT22;10367;52.202;5.996;2023-01-19T06:15:33;1.80;99.90
20416;DHT22;10367;52.202;5.996;2023-01-19T06:18:04;1.80;99.90
20416;DHT22;10367;52.202;5.996;2023-01-19T06:20:34;1.80;99.90
20416;DHT22;10367;52.202;5.996;2023-01-19T06:23:03;1.80;99.90
20416;DHT22;10367;52.202;5.996;2023-01-19T06:25:32;1.90;99.90
20416;DHT22;10367;52.202;5.996;2023-01-19T06:28:01;1.90;99.90
20416;DHT22;10367;52.202;5.996;2023-01-19T06:30:32;2.10;99.90
20416;DHT22;10367;52.202;5.996;2023-01-19T06:33:03;2.10;99.90
20416;DHT22;10367;52.202;5.996;2023-01-19T06:35:32;2.10;99.90
20416;DHT22;10367;52.202;5.996;2023-01-19T06:38:02;2.00;99.90
20416;DHT22;10367;52.202;5.996;2023-01-19T06:40:30;1.90;99.90
20416;DHT22;10367;52.202;5.996;2023-01-19T06:43:00;2.00;99.90
20416;DHT22;10367;52.202;5.996;2023-01-19T06:45:30;1.90;99.90
20416;DHT22;10367;52.202;5.996;2023-01-19T06:47:59;2.00;99.90
20416;DHT22;10367;52.202;5.996;2023-01-19T06:50:29;1.90;99.90
20416;DHT22;10367;52.202;5.996;2023-01-19T06:52:58;1.80;99.90
20416;DHT22;10367;52.202;5.996;2023-01-19T06:55:27;1.80;99.90
20416;DHT22;10367;52.202;5.996;2023-01-19T06:57:56;1.80;99.90
20416;DHT22;10367;52.202;5.996;2023-01-19T07:00:25;1.80;99.90
20416;DHT22;10367;52.202;5.996;2023-01-19T07:02:56;1.90;99.90
20416;DHT22;10367;52.202;5.996;2023-01-19T07:05:26;1.90;99.90
20416;DHT22;10367;52.202;5.996;2023-01-19T07:07:55;1.80;99.90
20416;DHT22;10367;52.202;5.996;2023-01-19T07:10:24;1.80;99.90
20416;DHT22;10367;52.202;5.996;2023-01-19T07:13:13;1.80;99.90
20416;DHT22;10367;52.202;5.996;2023-01-19T07:15:43;1.90;99.90
20416;DHT22;10367;52.202;5.996;2023-01-19T07:18:13;1.80;99.90
20416;DHT22;10367;52.202;5.996;2023-01-19T07:20:44;1.80;99.90
20416;DHT22;10367;52.202;5.996;2023-01-19T07:23:15;1.80;99.90
20416;DHT22;10367;52.202;5.996;2023-01-19T07:25:44;1.80;99.90
20416;DHT22;10367;52.202;5.996;2023-01-19T07:28:13;1.80;99.90
20416;DHT22;10367;52.202;5.996;2023-01-19T07:30:42;1.80;99.90
20416;DHT22;10367;52.202;5.996;2023-01-19T07:33:14;1.70;99.90
20416;DHT22;10367;52.202;5.996;2023-01-19T07:35:45;1.70;99.90
20416;DHT22;10367;52.202;5.996;2023-01-19T07:38:15;1.70;99.90
20416;DHT22;10367;52.202;5.996;2023-01-19T07:40:44;1.70;99.90
20416;DHT22;10367;52.202;5.996;2023-01-19T07:43:14;1.70;99.90
20416;DHT22;10367;52.202;5.996;2023-01-19T07:45:43;1.70;99.90
20416;DHT22;10367;52.202;5.996;2023-01-19T07:48:13;1.70;99.90
20416;DHT22;10367;52.202;5.996;2023-01-19T07:50:42;1.90;99.90
20416;DHT22;10367;52.202;5.996;2023-01-19T07:53:11;1.90;99.90
20416;DHT22;10367;52.202;5.996;2023-01-19T07:55:40;1.90;99.90
20416;DHT22;10367;52.202;5.996;2023-01-19T07:58:09;2.00;99.90
20416;DHT22;10367;52.202;5.996;2023-01-19T08:00:38;2.00;99.90
20416;DHT22;10367;52.202;5.996;2023-01-19T08:03:06;1.90;99.90
20416;DHT22;10367;52.202;5.996;2023-01-19T08:05:37;2.00;99.90
20416;DHT22;10367;52.202;5.996;2023-01-19T08:08:06;2.00;99.90
20416;DHT22;10367;52.202;5.996;2023-01-19T08:10:35;2.00;99.90
20416;DHT22;10367;52.202;5.996;2023-01-19T08:13:03;2.00;99.90
20416;DHT22;10367;52.202;5.996;2023-01-19T08:15:32;2.10;99.90
20416;DHT22;10367;52.202;5.996;2023-01-19T08:18:02;2.10;99.90
20416;DHT22;10367;52.202;5.996;2023-01-19T08:20:33;2.10;99.90
20416;DHT22;10367;52.202;5.996;2023-01-19T08:23:03;2.20;99.90
20416;DHT22;10367;52.202;5.996;2023-01-19T08:25:34;2.20;99.90
20416;DHT22;10367;52.202;5.996;2023-01-19T08:28:04;2.30;99.90
20416;DHT22;10367;52.202;5.996;2023-01-19T08:30:33;2.30;99.90
20416;DHT22;10367;52.202;5.996;2023-01-19T08:33:02;2.20;99.90
20416;DHT22;10367;52.202;5.996;2023-01-19T08:35:38;2.20;99.90
20416;DHT22;10367;52.202;5.996;2023-01-19T08:38:09;2.20;99.90
20416;DHT22;10367;52.202;5.996;2023-01-19T08:40:39;2.30;99.90
20416;DHT22;10367;52.202;5.996;2023-01-19T08:43:10;2.30;99.90
20416;DHT22;10367;52.202;5.996;2023-01-19T08:45:41;2.30;99.90
20416;DHT22;10367;52.202;5.996;2023-01-19T08:48:15;2.40;99.90
20416;DHT22;10367;52.202;5.996;2023-01-19T08:50:45;2.40;99.90
20416;DHT22;10367;52.202;5.996;2023-01-19T08:53:16;2.40;99.90
20416;DHT22;10367;52.202;5.996;2023-01-19T08:55:45;2.40;99.90
20416;DHT22;10367;52.202;5.996;2023-01-19T08:58:15;2.40;99.90
20416;DHT22;10367;52.202;5.996;2023-01-19T09:00:43;2.50;99.90
20416;DHT22;10367;52.202;5.996;2023-01-19T09:03:12;2.50;99.90
20416;DHT22;10367;52.202;5.996;2023-01-19T09:05:41;2.50;99.90
20416;DHT22;10367;52.202;5.996;2023-01-19T09:08:12;2.50;99.90
20416;DHT22;10367;52.202;5.996;2023-01-19T09:10:46;2.40;99.90
20416;DHT22;10367;52.202;5.996;2023-01-19T09:13:17;2.30;99.90
20416;DHT22;10367;52.202;5.996;2023-01-19T09:15:46;2.30;99.90
20416;DHT22;10367;52.202;5.996;2023-01-19T09:18:16;2.10;99.90
20416;DHT22;10367;52.202;5.996;2023-01-19T09:20:46;2.10;99.90
20416;DHT22;10367;52.202;5.996;2023-01-19T09:23:17;2.10;99.90
20416;DHT22;10367;52.202;5.996;2023-01-19T09:25:54;2.00;99.90
20416;DHT22;10367;52.202;5.996;2023-01-19T09:28:23;2.10;99.90
20416;DHT22;10367;52.202;5.996;2023-01-19T09:30:52;2.10;99.90
20416;DHT22;10367;52.202;5.996;2023-01-19T09:33:21;2.10;99.90
20416;DHT22;10367;52.202;5.996;2023-01-19T09:35:51;2.20;99.90
20416;DHT22;10367;52.202;5.996;2023-01-19T09:38:22;2.10;99.90
20416;DHT22;10367;52.202;5.996;2023-01-19T09:40:54;2.20;99.90
20416;DHT22;10367;52.202;5.996;2023-01-19T09:43:34;2.30;99.90
20416;DHT22;10367;52.202;5.996;2023-01-19T09:46:11;2.30;99.90
20416;DHT22;10367;52.202;5.996;2023-01-19T09:48:45;2.40;99.90
20416;DHT22;10367;52.202;5.996;2023-01-19T09:51:16;2.50;99.90
20416;DHT22;10367;52.202;5.996;2023-01-19T09:54:00;2.50;99.90
20416;DHT22;10367;52.202;5.996;2023-01-19T09:56:31;2.60;99.90
20416;DHT22;10367;52.202;5.996;2023-01-19T09:59:02;2.60;99.90
20416;DHT22;10367;52.202;5.996;2023-01-19T10:01:49;2.70;99.90
20416;DHT22;10367;52.202;5.996;2023-01-19T10:04:29;2.70;99.90
20416;DHT22;10367;52.202;5.996;2023-01-19T10:07:20;2.80;99.90
20416;DHT22;10367;52.202;5.996;2023-01-19T10:10:08;2.80;99.90
20416;DHT22;10367;52.202;5.996;2023-01-19T10:12:51;2.90;99.90
20416;DHT22;10367;52.202;5.996;2023-01-19T10:15:30;3.10;99.90
20416;DHT22;10367;52.202;5.996;2023-01-19T10:18:15;3.10;99.90
20416;DHT22;10367;52.202;5.996;2023-01-19T10:20:48;3.30;99.90
20416;DHT22;10367;52.202;5.996;2023-01-19T10:23:40;3.30;99.90
20416;DHT22;10367;52.202;5.996;2023-01-19T10:26:15;3.30;99.90
20416;DHT22;10367;52.202;5.996;2023-01-19T10:28:47;3.40;99.90
20416;DHT22;10367;52.202;5.996;2023-01-19T10:31:22;3.50;99.90
20416;DHT22;10367;52.202;5.996;2023-01-19T10:33:52;3.50;99.90
20416;DHT22;10367;52.202;5.996;2023-01-19T10:36:26;3.40;99.90
20416;DHT22;10367;52.202;5.996;2023-01-19T10:38:57;3.60;99.90
20416;DHT22;10367;52.202;5.996;2023-01-19T10:41:29;3.80;99.90
20416;DHT22;10367;52.202;5.996;2023-01-19T10:44:02;3.90;99.90
20416;DHT22;10367;52.202;5.996;2023-01-19T10:46:36;4.00;99.90
20416;DHT22;10367;52.202;5.996;2023-01-19T10:49:05;4.20;99.90
20416;DHT22;10367;52.202;5.996;2023-01-19T10:51:48;4.30;99.90
20416;DHT22;10367;52.202;5.996;2023-01-19T10:54:17;4.40;99.90
20416;DHT22;10367;52.202;5.996;2023-01-19T10:56:52;4.40;99.90
20416;DHT22;10367;52.202;5.996;2023-01-19T10:59:35;4.50;99.90
20416;DHT22;10367;52.202;5.996;2023-01-19T11:02:16;4.50;99.90
20416;DHT22;10367;52.202;5.996;2023-01-19T11:04:47;4.50;99.90
20416;DHT22;10367;52.202;5.996;2023-01-19T11:07:20;4.60;99.90
20416;DHT22;10367;52.202;5.996;2023-01-19T11:09:49;4.60;99.90
20416;DHT22;10367;52.202;5.996;2023-01-19T11:12:40;4.70;99.90
20416;DHT22;10367;52.202;5.996;2023-01-19T11:15:14;4.90;99.90
20416;DHT22;10367;52.202;5.996;2023-01-19T11:17:45;4.90;99.90
20416;DHT22;10367;52.202;5.996;2023-01-19T11:20:20;4.90;99.90
20416;DHT22;10367;52.202;5.996;2023-01-19T11:23:03;4.90;99.90
20416;DHT22;10367;52.202;5.996;2023-01-19T11:25:34;4.90;99.90
20416;DHT22;10367;52.202;5.996;2023-01-19T11:28:04;4.90;99.90
20416;DHT22;10367;52.202;5.996;2023-01-19T11:30:34;4.90;99.90
20416;DHT22;10367;52.202;5.996;2023-01-19T11:33:04;4.90;99.90
20416;DHT22;10367;52.202;5.996;2023-01-19T11:35:37;5.00;99.90
20416;DHT22;10367;52.202;5.996;2023-01-19T11:38:14;5.00;99.90
20416;DHT22;10367;52.202;5.996;2023-01-19T11:40:51;5.00;99.90
20416;DHT22;10367;52.202;5.996;2023-01-19T11:43:21;5.10;99.90
20416;DHT22;10367;52.202;5.996;2023-01-19T11:45:54;5.20;99.90
20416;DHT22;10367;52.202;5.996;2023-01-19T11:48:27;5.20;99.90
20416;DHT22;10367;52.202;5.996;2023-01-19T11:50:59;5.30;99.90
20416;DHT22;10367;52.202;5.996;2023-01-19T11:53:32;5.50;99.90
20416;DHT22;10367;52.202;5.996;2023-01-19T11:56:03;5.60;99.90
20416;DHT22;10367;52.202;5.996;2023-01-19T11:58:38;5.70;99.90
20416;DHT22;10367;52.202;5.996;2023-01-19T12:01:15;5.70;99.90
20416;DHT22;10367;52.202;5.996;2023-01-19T12:03:52;5.80;99.90
20416;DHT22;10367;52.202;5.996;2023-01-19T12:06:25;5.80;99.90
20416;DHT22;10367;52.202;5.996;2023-01-19T12:09:00;5.80;99.90
20416;DHT22;10367;52.202;5.996;2023-01-19T12:11:33;5.80;99.90
20416;DHT22;10367;52.202;5.996;2023-01-19T12:14:03;5.90;99.90
20416;DHT22;10367;52.202;5.996;2023-01-19T12:16:37;5.90;99.90
20416;DHT22;10367;52.202;5.996;2023-01-19T12:19:13;5.90;99.90
20416;DHT22;10367;52.202;5.996;2023-01-19T12:21:43;5.90;99.90
20416;DHT22;10367;52.202;5.996;2023-01-19T12:24:16;5.70;99.90
20416;DHT22;10367;52.202;5.996;2023-01-19T12:26:50;5.80;99.90
20416;DHT22;10367;52.202;5.996;2023-01-19T12:29:22;5.60;99.90
20416;DHT22;10367;52.202;5.996;2023-01-19T12:32:26;5.70;99.90
20416;DHT22;10367;52.202;5.996;2023-01-19T12:34:57;5.80;99.90
20416;DHT22;10367;52.202;5.996;2023-01-19T12:37:39;5.90;99.90
20416;DHT22;10367;52.202;5.996;2023-01-19T12:40:23;6.00;99.90
20416;DHT22;10367;52.202;5.996;2023-01-19T12:42:57;6.10;99.90
20416;DHT22;10367;52.202;5.996;2023-01-19T12:45:31;6.20;99.90
20416;DHT22;10367;52.202;5.996;2023-01-19T12:48:03;6.20;99.90
20416;DHT22;10367;52.202;5.996;2023-01-19T12:50:36;6.20;99.90
20416;DHT22;10367;52.202;5.996;2023-01-19T12:53:15;5.90;99.90
20416;DHT22;10367;52.202;5.996;2023-01-19T12:55:57;5.60;99.90
20416;DHT22;10367;52.202;5.996;2023-01-19T12:58:27;5.50;99.90
20416;DHT22;10367;52.202;5.996;2023-01-19T13:01:12;5.40;99.90
20416;DHT22;10367;52.202;5.996;2023-01-19T13:03:45;5.40;99.90
20416;DHT22;10367;52.202;5.996;2023-01-19T13:09:31;5.50;99.90
20416;DHT22;10367;52.202;5.996;2023-01-19T13:12:20;5.50;99.90
20416;DHT22;10367;52.202;5.996;2023-01-19T13:14:49;5.50;99.90
20416;DHT22;10367;52.202;5.996;2023-01-19T13:17:32;5.70;99.90
20416;DHT22;10367;52.202;5.996;2023-01-19T13:20:25;5.60;99.90
20416;DHT22;10367;52.202;5.996;2023-01-19T13:23:23;5.40;99.90
20416;DHT22;10367;52.202;5.996;2023-01-19T13:26:01;5.30;99.90
20416;DHT22;10367;52.202;5.996;2023-01-19T13:28:36;5.30;99.90
20416;DHT22;10367;52.202;5.996;2023-01-19T13:31:06;5.30;99.90
20416;DHT22;10367;52.202;5.996;2023-01-19T13:33:42;5.30;99.90
20416;DHT22;10367;52.202;5.996;2023-01-19T13:36:22;5.40;99.90
20416;DHT22;10367;52.202;5.996;2023-01-19T13:38:53;5.80;99.90
20416;DHT22;10367;52.202;5.996;2023-01-19T13:41:26;6.00;99.90
20416;DHT22;10367;52.202;5.996;2023-01-19T13:44:00;6.10;99.90
20416;DHT22;10367;52.202;5.996;2023-01-19T13:46:30;6.10;99.90
20416;DHT22;10367;52.202;5.996;2023-01-19T13:49:03;6.10;99.90
20416;DHT22;10367;52.202;5.996;2023-01-19T13:51:34;6.20;99.90
20416;DHT22;10367;52.202;5.996;2023-01-19T13:54:03;6.20;99.90
20416;DHT22;10367;52.202;5.996;2023-01-19T13:56:32;6.20;99.90
20416;DHT22;10367;52.202;5.996;2023-01-19T13:59:04;6.20;99.90
20416;DHT22;10367;52.202;5.996;2023-01-19T14:01:37;6.10;99.90
20416;DHT22;10367;52.202;5.996;2023-01-19T14:04:23;6.00;99.90
20416;DHT22;10367;52.202;5.996;2023-01-19T14:06:56;5.90;99.90
20416;DHT22;10367;52.202;5.996;2023-01-19T14:09:25;5.80;99.90
20416;DHT22;10367;52.202;5.996;2023-01-19T14:12:08;5.80;99.90
20416;DHT22;10367;52.202;5.996;2023-01-19T14:14:38;5.70;99.90
20416;DHT22;10367;52.202;5.996;2023-01-19T14:17:22;5.80;99.90
20416;DHT22;10367;52.202;5.996;2023-01-19T14:19:52;5.90;99.90
20416;DHT22;10367;52.202;5.996;2023-01-19T14:22:39;5.90;99.90
20416;DHT22;10367;52.202;5.996;2023-01-19T14:25:30;5.90;99.90
20416;DHT22;10367;52.202;5.996;2023-01-19T14:28:27;5.90;99.90
20416;DHT22;10367;52.202;5.996;2023-01-19T14:30:59;5.90;99.90
20416;DHT22;10367;52.202;5.996;2023-01-19T14:33:40;5.80;99.90
20416;DHT22;10367;52.202;5.996;2023-01-19T14:36:23;5.90;99.90
20416;DHT22;10367;52.202;5.996;2023-01-19T14:38:57;5.80;99.90
20416;DHT22;10367;52.202;5.996;2023-01-19T14:41:32;5.80;99.90
20416;DHT22;10367;52.202;5.996;2023-01-19T14:44:07;5.70;99.90
20416;DHT22;10367;52.202;5.996;2023-01-19T14:46:37;5.50;99.90
20416;DHT22;10367;52.202;5.996;2023-01-19T14:49:05;5.50;99.90
20416;DHT22;10367;52.202;5.996;2023-01-19T14:51:36;5.60;99.90
20416;DHT22;10367;52.202;5.996;2023-01-19T14:54:14;5.60;99.90
20416;DHT22;10367;52.202;5.996;2023-01-19T14:56:45;5.60;99.90
20416;DHT22;10367;52.202;5.996;2023-01-19T14:59:14;5.60;99.90
20416;DHT22;10367;52.202;5.996;2023-01-19T15:01:42;5.50;99.90
20416;DHT22;10367;52.202;5.996;2023-01-19T15:04:11;5.50;99.90
20416;DHT22;10367;52.202;5.996;2023-01-19T15:06:41;5.40;99.90
20416;DHT22;10367;52.202;5.996;2023-01-19T15:09:14;5.20;99.90
20416;DHT22;10367;52.202;5.996;2023-01-19T15:11:46;5.00;99.90
20416;DHT22;10367;52.202;5.996;2023-01-19T15:14:17;4.90;99.90
20416;DHT22;10367;52.202;5.996;2023-01-19T15:16:47;4.80;99.90
20416;DHT22;10367;52.202;5.996;2023-01-19T15:19:16;4.60;99.90
20416;DHT22;10367;52.202;5.996;2023-01-19T15:21:45;4.50;99.90
20416;DHT22;10367;52.202;5.996;2023-01-19T15:24:16;4.30;99.90
20416;DHT22;10367;52.202;5.996;2023-01-19T15:26:44;4.30;99.90
20416;DHT22;10367;52.202;5.996;2023-01-19T15:29:17;4.20;99.90
20416;DHT22;10367;52.202;5.996;2023-01-19T15:31:47;4.00;99.90
20416;DHT22;10367;52.202;5.996;2023-01-19T15:34:17;3.90;99.90
20416;DHT22;10367;52.202;5.996;2023-01-19T15:36:45;3.80;99.90
20416;DHT22;10367;52.202;5.996;2023-01-19T15:39:15;3.80;99.90
20416;DHT22;10367;52.202;5.996;2023-01-19T15:41:44;3.60;99.90
20416;DHT22;10367;52.202;5.996;2023-01-19T15:44:13;3.60;99.90
20416;DHT22;10367;52.202;5.996;2023-01-19T15:46:41;3.50;99.90
20416;DHT22;10367;52.202;5.996;2023-01-19T15:49:10;3.50;99.90
20416;DHT22;10367;52.202;5.996;2023-01-19T15:51:39;3.40;99.90
20416;DHT22;10367;52.202;5.996;2023-01-19T15:54:08;3.30;99.90
20416;DHT22;10367;52.202;5.996;2023-01-19T15:56:41;3.10;99.90
20416;DHT22;10367;52.202;5.996;2023-01-19T15:59:09;3.00;99.90
20416;DHT22;10367;52.202;5.996;2023-01-19T16:01:39;3.00;99.90
20416;DHT22;10367;52.202;5.996;2023-01-19T16:04:08;2.80;99.90
20416;DHT22;10367;52.202;5.996;2023-01-19T16:06:38;2.70;99.90
20416;DHT22;10367;52.202;5.996;2023-01-19T16:09:07;2.70;99.90
20416;DHT22;10367;52.202;5.996;2023-01-19T16:11:36;2.60;99.90
20416;DHT22;10367;52.202;5.996;2023-01-19T16:14:06;2.50;99.90
20416;DHT22;10367;52.202;5.996;2023-01-19T16:16:35;2.40;99.90
20416;DHT22;10367;52.202;5.996;2023-01-19T16:19:04;2.40;99.90
20416;DHT22;10367;52.202;5.996;2023-01-19T16:21:33;2.40;99.90